Decoded Metar for LZPP (PIESTANY in SLOVAKIA) (IATA:PZY) | Meteo·Mobile Aviation Weather
aviador You're here:

LZPP Decoded Metar

PIESTANY in SLOVAKIA
Report Time2019-07-19 19:00:00
UTC Time2019-07-19 19:08:35
Flight Rules vfr VFR
Wind360° at 08 kt
W.Decomp.*RWY 01: 7.8 kt HW 1.8 kt LCW
Visibility9999 m
Phenomena:N/A
Clouds:N/A
Expected CloudBase > 2,400 ft AGL from Temp-Dew spread
CeilingNone
Temp21°C (ISA +7)
Dew Point15°C (69% RH)
AAT19.8°C
QNH1015 hPa
Density Alt1,512 ft
Elevation528 ft
Report Wrong Elevation
Raw Report
METAR LZPP 191900Z 36008KT CAVOK 21/15 Q1015=

Extra information for LZPP:More info

Metar Taf Metar & Taf Last 4 Metars F.Rules Stats Wind Profile Meteogram Temp Stats Airport Information Weather charts Add Link Nearby VenuesMetar ALERT Operation Metar Decoded Social comments